createdAt,value
2019-03-01T00:01:31.602Z,99678.33
2019-03-01T00:04:05.053Z,99685.89
2019-03-01T00:07:12.330Z,99685.77
2019-03-01T00:10:19.599Z,99690.02
2019-03-01T00:13:27.234Z,99691.88
2019-03-01T00:16:20.503Z,99695.38
2019-03-01T00:19:12.654Z,99694.59
2019-03-01T00:22:16.211Z,99700.84
2019-03-01T00:25:23.450Z,99698.17
2019-03-01T00:39:32.049Z,99677.31
2019-03-01T00:42:26.270Z,99677.05
2019-03-01T00:44:55.481Z,99672.14
2019-03-01T00:47:24.969Z,99670.28
2019-03-01T00:49:54.234Z,99664.58
2019-03-01T00:52:23.753Z,99665.98
2019-03-01T00:54:53.054Z,99655.98
2019-03-01T00:57:22.251Z,99660.33
2019-03-01T00:59:51.756Z,99651.45
2019-03-01T01:02:20.986Z,99649.05
2019-03-01T01:04:50.255Z,99647.44
2019-03-01T01:07:19.455Z,99636.36
2019-03-01T01:09:48.688Z,99628.23
2019-03-01T01:15:07.003Z,99624.73
2019-03-01T01:17:36.256Z,99620.71
2019-03-01T01:20:05.892Z,99611.80
2019-03-01T01:22:35.092Z,99609.61
2019-03-01T01:27:59.828Z,99604.21
2019-03-01T01:30:29.129Z,99593.38
2019-03-01T01:32:58.330Z,99584.45
2019-03-01T01:36:08.906Z,99576.89
2019-03-01T01:38:38.403Z,99582.80
2019-03-01T01:41:07.664Z,99577.41
2019-03-01T01:43:37.708Z,99577.11
2019-03-01T01:46:06.921Z,99574.91
2019-03-01T01:48:36.155Z,99571.14
2019-03-01T01:51:05.376Z,99566.00
2019-03-01T01:53:34.570Z,99567.91
2019-03-01T01:56:03.854Z,99560.08
2019-03-01T01:58:33.062Z,99552.50
2019-03-01T02:01:02.328Z,99542.80
2019-03-01T02:03:31.851Z,99539.52
2019-03-01T02:06:01.685Z,99540.03
2019-03-01T02:08:30.993Z,99538.69
2019-03-01T02:11:00.227Z,99543.55
2019-03-01T02:13:29.429Z,99545.67
2019-03-01T02:15:58.732Z,99543.99
2019-03-01T02:18:28.652Z,99550.48
2019-03-01T02:20:58.213Z,99554.77
2019-03-01T02:23:27.464Z,99553.68
2019-03-01T02:25:57.004Z,99547.45
2019-03-01T02:28:26.232Z,99549.88
2019-03-01T02:30:55.994Z,99551.00
2019-03-01T02:33:25.232Z,99545.03
2019-03-01T02:35:54.472Z,99548.03
2019-03-01T02:38:23.674Z,99546.91
2019-03-01T02:40:52.936Z,99546.92
2019-03-01T02:43:22.133Z,99548.53
2019-03-01T02:45:51.368Z,99543.37
2019-03-01T02:48:20.626Z,99540.09
2019-03-01T02:50:49.913Z,99544.64
2019-03-01T02:53:19.127Z,99544.09
2019-03-01T02:55:48.336Z,99537.84
2019-03-01T02:58:17.870Z,99527.86
2019-03-01T03:00:47.097Z,99531.70
2019-03-01T03:03:16.656Z,99521.17
2019-03-01T03:06:04.865Z,99524.12
2019-03-01T03:08:34.876Z,99520.33
2019-03-01T03:11:04.109Z,99523.45
2019-03-01T03:13:33.713Z,99524.76
2019-03-01T03:16:02.913Z,99525.85
2019-03-01T03:18:32.204Z,99521.22
2019-03-01T03:21:01.427Z,99520.79
2019-03-01T03:23:30.650Z,99509.75
2019-03-01T03:26:00.236Z,99508.15
2019-03-01T03:28:30.073Z,99503.81
2019-03-01T03:30:59.392Z,99504.27
2019-03-01T03:33:29.183Z,99508.52
2019-03-01T03:35:58.367Z,99518.78
2019-03-01T03:38:27.693Z,99526.08
2019-03-01T03:40:56.987Z,99532.52
2019-03-01T03:43:26.319Z,99533.62
2019-03-01T03:45:55.612Z,99536.20
2019-03-01T03:48:24.991Z,99545.69
2019-03-01T03:53:45.054Z,99551.28
2019-03-01T03:56:14.259Z,99554.20
2019-03-01T03:58:43.503Z,99567.43
2019-03-01T04:01:12.996Z,99571.22
2019-03-01T04:03:42.251Z,99574.45
2019-03-01T04:06:11.451Z,99585.80
2019-03-01T04:08:40.958Z,99586.59
2019-03-01T04:11:10.151Z,99590.17
2019-03-01T04:13:39.488Z,99595.52
2019-03-01T04:16:08.694Z,99598.64
2019-03-01T04:18:37.918Z,99605.69
2019-03-01T04:21:07.123Z,99603.02
2019-03-01T04:23:36.592Z,99605.31
2019-03-01T04:26:05.805Z,99607.16
2019-03-01T04:28:35.032Z,99598.70
2019-03-01T04:31:04.889Z,99601.90
2019-03-01T04:33:34.122Z,99597.52
2019-03-01T04:36:04.359Z,99593.47
2019-03-01T04:38:34.042Z,99592.97
2019-03-01T04:41:04.495Z,99588.68
2019-03-01T04:54:46.919Z,99575.08
2019-03-01T04:57:17.668Z,99570.98
2019-03-01T05:26:51.515Z,99562.46
2019-03-01T05:29:20.955Z,99572.48
2019-03-01T05:31:50.414Z,99582.39
2019-03-01T05:34:20.898Z,99590.53
2019-03-01T05:36:50.690Z,99596.12
2019-03-01T05:39:20.362Z,99598.83
2019-03-01T05:41:49.640Z,99608.54
2019-03-01T05:44:18.952Z,99615.77
2019-03-01T05:46:48.361Z,99622.52
2019-03-01T05:49:18.186Z,99633.89
2019-03-01T05:51:47.433Z,99635.73
2019-03-01T05:54:16.703Z,99643.58
2019-03-01T05:56:45.954Z,99651.41
2019-03-01T05:59:24.036Z,99656.89
2019-03-01T06:02:31.635Z,99660.42
2019-03-01T06:05:21.178Z,99665.03
2019-03-01T06:24:35.470Z,99692.92
2019-03-01T06:36:07.226Z,99697.83
2019-03-01T06:50:27.246Z,99714.31
2019-03-01T06:52:56.757Z,99714.01
2019-03-01T06:58:20.674Z,99719.67
2019-03-01T07:03:42.557Z,99732.66
2019-03-01T07:06:11.799Z,99732.92
2019-03-01T07:08:41.330Z,99738.86
2019-03-01T07:11:10.602Z,99740.16
2019-03-01T07:13:39.841Z,99745.34
2019-03-01T07:16:09.096Z,99748.57
2019-03-01T07:18:38.749Z,99752.36
2019-03-01T07:21:07.990Z,99757.81
2019-03-01T07:23:37.290Z,99754.28
2019-03-01T07:26:06.484Z,99756.23
2019-03-01T07:28:35.761Z,99758.67
2019-03-01T07:31:06.989Z,99759.50
2019-03-01T07:33:36.011Z,99762.77
2019-03-01T07:36:05.248Z,99760.62
2019-03-01T07:38:34.549Z,99761.31
2019-03-01T07:41:04.030Z,99769.12
2019-03-01T07:43:33.305Z,99764.50
2019-03-01T07:46:02.879Z,99765.67
2019-03-01T07:48:32.195Z,99768.41
2019-03-01T07:51:02.504Z,99771.16
2019-03-01T07:53:36.134Z,99778.18
2019-03-01T07:56:13.650Z,99777.38
2019-03-01T07:58:43.287Z,99784.45
2019-03-01T08:01:12.895Z,99787.45
2019-03-01T08:03:42.162Z,99786.59
2019-03-01T08:06:13.467Z,99792.56
2019-03-01T08:08:42.384Z,99789.63
2019-03-01T08:11:14.011Z,99790.20
2019-03-01T08:13:43.236Z,99795.72
2019-03-01T08:16:12.531Z,99784.00
2019-03-01T08:18:44.134Z,99791.55
2019-03-01T08:21:14.895Z,99786.48
2019-03-01T08:23:44.628Z,99793.27
2019-03-01T08:26:14.399Z,99782.31
2019-03-01T08:28:43.945Z,99795.64
2019-03-01T08:31:13.230Z,99796.77
2019-03-01T08:33:43.678Z,99801.66
2019-03-01T08:36:13.823Z,99804.02
2019-03-01T08:38:43.059Z,99799.66
2019-03-01T08:41:12.353Z,99808.89
2019-03-01T08:43:44.720Z,99812.16
2019-03-01T08:46:12.767Z,99814.61
2019-03-01T08:48:42.387Z,99808.59
2019-03-01T08:51:11.646Z,99816.18
2019-03-01T08:53:41.151Z,99818.89
2019-03-01T08:56:10.899Z,99818.81
2019-03-01T08:58:42.532Z,99820.38
2019-03-01T09:01:13.484Z,99821.20
2019-03-01T09:03:46.566Z,99812.53
2019-03-01T09:06:15.831Z,99798.19
2019-03-01T09:08:46.243Z,99807.69
2019-03-01T09:11:16.387Z,99815.38
2019-03-01T09:13:45.611Z,99806.27
2019-03-01T09:16:14.929Z,99809.05
2019-03-01T09:18:46.593Z,99817.08
2019-03-01T09:21:15.548Z,99820.44
2019-03-01T09:23:48.038Z,99822.56
2019-03-01T09:26:16.703Z,99822.00
2019-03-01T09:28:47.177Z,99830.50
2019-03-01T09:31:17.901Z,99829.33
2019-03-01T09:33:47.170Z,99827.93
2019-03-01T09:39:47.062Z,99830.24
2019-03-01T09:42:16.399Z,99855.20
2019-03-01T09:44:45.652Z,99860.51
2019-03-01T09:47:14.905Z,99880.45
2019-03-01T09:50:03.355Z,99885.02
2019-03-01T09:52:32.975Z,99888.15
2019-03-01T09:55:02.872Z,99890.64
2019-03-01T09:57:32.517Z,99895.88
2019-03-01T10:00:01.793Z,99904.70
2019-03-01T10:02:31.031Z,99896.60
2019-03-01T10:05:00.638Z,99908.03
2019-03-01T10:07:49.926Z,99912.33
2019-03-01T10:10:21.585Z,99915.86
2019-03-01T10:12:50.844Z,99921.87
2019-03-01T10:15:20.111Z,99924.95
2019-03-01T10:17:49.339Z,99938.45
2019-03-01T10:20:18.645Z,99941.48
2019-03-01T10:22:47.855Z,99938.73
2019-03-01T10:25:17.211Z,99942.67
2019-03-01T10:27:46.532Z,99954.42
2019-03-01T10:30:20.623Z,99952.19
2019-03-01T10:32:49.843Z,99960.48
2019-03-01T10:35:19.056Z,99971.00
2019-03-01T10:37:48.275Z,99971.79
2019-03-01T10:40:19.095Z,99974.62
2019-03-01T10:42:48.884Z,99974.16
2019-03-01T10:45:20.635Z,99987.45
2019-03-01T10:47:49.865Z,99993.10
2019-03-01T10:50:19.665Z,99993.44
2019-03-01T11:01:35.047Z,99997.60
2019-03-01T11:14:16.977Z,100010.37
2019-03-01T11:21:10.929Z,100016.75
2019-03-01T12:25:10.752Z,100067.37
2019-03-01T12:27:40.082Z,100050.02
2019-03-01T12:30:12.615Z,100061.52
2019-03-01T12:32:42.173Z,100062.55
2019-03-01T12:35:11.554Z,100062.36
2019-03-01T12:37:41.313Z,100060.85
2019-03-01T12:40:30.730Z,100072.37
2019-03-01T12:42:59.983Z,100059.63
2019-03-01T12:45:29.269Z,100061.06
2019-03-01T12:47:58.531Z,100069.68
2019-03-01T12:50:27.844Z,100069.38
2019-03-01T12:52:57.735Z,100065.20
2019-03-01T12:55:26.978Z,100079.07
2019-03-01T13:00:51.177Z,100083.76
2019-03-01T13:03:20.841Z,100080.59
2019-03-01T13:05:50.174Z,100091.73
2019-03-01T13:08:19.806Z,100092.77
2019-03-01T13:10:49.059Z,100102.94
2019-03-01T13:13:18.376Z,100103.36
2019-03-01T13:15:49.624Z,100104.89
2019-03-01T13:18:18.847Z,100104.89
2019-03-01T13:21:09.701Z,100105.75
2019-03-01T13:23:40.486Z,100114.87
2019-03-01T13:26:28.158Z,100113.45
2019-03-01T13:28:57.735Z,100117.32
2019-03-01T13:31:26.947Z,100126.83
2019-03-01T13:33:56.769Z,100137.69
2019-03-01T13:36:26.041Z,100147.54
2019-03-01T13:38:55.327Z,100147.97
2019-03-01T13:41:25.377Z,100154.02
2019-03-01T13:43:56.219Z,100163.28
2019-03-01T13:46:29.953Z,100162.45
2019-03-01T13:48:57.384Z,100170.97
2019-03-01T13:51:26.660Z,100166.92
2019-03-01T13:53:55.931Z,100179.20
2019-03-01T13:57:04.806Z,100173.25
2019-03-01T13:59:37.566Z,100176.19
2019-03-01T14:05:17.067Z,100185.52
2019-03-01T14:10:24.494Z,100186.41
2019-03-01T14:12:54.142Z,100187.75
2019-03-01T14:18:33.377Z,100199.48
2019-03-01T14:21:03.969Z,100190.52
2019-03-01T14:23:34.008Z,100202.08
2019-03-01T14:26:03.531Z,100200.94
2019-03-01T14:28:33.354Z,100209.76
2019-03-01T14:31:03.996Z,100209.23
2019-03-01T14:33:34.367Z,100204.94
2019-03-01T14:36:03.829Z,100212.70
2019-03-01T14:38:33.167Z,100211.17
2019-03-01T14:41:02.452Z,100210.47
2019-03-01T14:43:32.036Z,100213.20
2019-03-01T14:46:01.788Z,100215.30
2019-03-01T14:48:31.677Z,100210.88
2019-03-01T14:51:01.375Z,100221.31
2019-03-01T14:56:34.837Z,100217.52
2019-03-01T14:59:24.727Z,100222.25
2019-03-01T15:02:04.212Z,100219.69
2019-03-01T15:04:54.388Z,100229.36
2019-03-01T15:07:27.923Z,100232.22
2019-03-01T15:09:57.173Z,100234.83
2019-03-01T15:12:27.277Z,100231.15
2019-03-01T15:14:56.554Z,100239.11
2019-03-01T15:17:25.780Z,100241.93
2019-03-01T15:19:55.328Z,100254.61
2019-03-01T15:22:27.525Z,100252.19
2019-03-01T15:24:56.874Z,100243.09
2019-03-01T15:27:44.998Z,100256.84
2019-03-01T15:30:14.672Z,100256.41
2019-03-01T15:32:43.889Z,100271.53
2019-03-01T15:35:13.152Z,100268.52
2019-03-01T15:37:42.383Z,100281.55
2019-03-01T15:40:11.687Z,100270.78
2019-03-01T15:42:40.922Z,100289.88
2019-03-01T15:45:10.560Z,100287.17
2019-03-01T15:47:40.102Z,100290.53
2019-03-01T15:50:10.088Z,100288.50
2019-03-01T15:52:39.369Z,100288.87
2019-03-01T15:55:11.796Z,100304.86
2019-03-01T15:57:39.793Z,100304.71
2019-03-01T16:00:31.009Z,100312.13
2019-03-01T16:03:00.290Z,100325.55
2019-03-01T16:05:29.857Z,100310.33
2019-03-01T16:07:59.142Z,100324.38
2019-03-01T16:10:28.336Z,100327.05
2019-03-01T16:12:57.890Z,100318.88
2019-03-01T16:15:27.739Z,100321.52
2019-03-01T16:17:57.605Z,100327.79
2019-03-01T16:20:28.602Z,100329.22
2019-03-01T16:22:59.105Z,100341.05
2019-03-01T16:25:28.313Z,100330.88
2019-03-01T16:27:57.905Z,100343.61
2019-03-01T16:30:27.120Z,100346.81
2019-03-01T16:32:56.385Z,100334.61
2019-03-01T16:35:25.650Z,100333.41
2019-03-01T16:40:32.262Z,100344.83
2019-03-01T16:43:01.511Z,100343.72
2019-03-01T16:45:31.020Z,100356.72
2019-03-01T16:48:00.996Z,100349.47
2019-03-01T16:50:31.295Z,100360.84
2019-03-01T16:53:04.291Z,100356.44
2019-03-01T16:55:50.859Z,100361.33
2019-03-01T16:58:20.110Z,100364.71
2019-03-01T17:00:50.697Z,100367.49
2019-03-01T17:03:20.365Z,100366.60
2019-03-01T17:14:47.801Z,100387.20
2019-03-01T17:17:17.027Z,100389.06
2019-03-01T17:19:47.272Z,100391.47
2019-03-01T17:22:36.577Z,100392.68
2019-03-01T17:25:06.457Z,100396.63
2019-03-01T17:27:36.720Z,100394.62
2019-03-01T17:30:31.080Z,100396.06
2019-03-01T17:33:01.429Z,100398.98
2019-03-01T17:35:30.673Z,100393.73
2019-03-01T17:37:59.939Z,100392.53
2019-03-01T17:40:32.427Z,100395.55
2019-03-01T17:43:00.860Z,100394.34
2019-03-01T17:45:30.459Z,100388.06
2019-03-01T17:47:59.707Z,100395.92
2019-03-01T17:50:48.601Z,100393.59
2019-03-01T17:53:20.411Z,100392.48
2019-03-01T17:55:49.815Z,100388.81
2019-03-01T17:58:19.072Z,100383.72
2019-03-01T18:00:48.681Z,100394.75
2019-03-01T18:03:37.016Z,100388.53
2019-03-01T18:06:06.310Z,100396.61
2019-03-01T18:08:35.829Z,100398.88
2019-03-01T18:11:26.395Z,100395.58
2019-03-01T18:13:56.848Z,100395.69
2019-03-01T18:16:27.192Z,100394.89
2019-03-01T18:18:56.776Z,100394.83
2019-03-01T18:21:25.999Z,100394.00
2019-03-01T18:23:55.547Z,100399.47
2019-03-01T18:26:24.808Z,100403.20
2019-03-01T18:29:13.474Z,100401.85
2019-03-01T18:31:43.097Z,100402.69
2019-03-01T18:34:12.432Z,100405.06
2019-03-01T18:36:41.725Z,100401.02
2019-03-01T18:39:12.113Z,100402.91
2019-03-01T18:41:41.561Z,100402.59
2019-03-01T18:44:10.764Z,100404.38
2019-03-01T18:46:40.645Z,100406.35
2019-03-01T18:49:10.171Z,100396.92
2019-03-01T18:51:43.287Z,100396.75
2019-03-01T18:54:10.729Z,100396.95
2019-03-01T18:56:40.439Z,100396.75
2019-03-01T18:59:09.688Z,100403.95
2019-03-01T19:01:39.310Z,100399.07
2019-03-01T19:04:08.815Z,100400.33
2019-03-01T19:06:57.260Z,100395.58
2019-03-01T19:09:26.552Z,100394.34
2019-03-01T19:11:57.225Z,100388.44
2019-03-01T19:14:46.753Z,100394.06
2019-03-01T19:17:16.002Z,100394.52
2019-03-01T19:19:45.258Z,100392.25
2019-03-01T19:22:36.166Z,100392.48
2019-03-01T19:25:05.420Z,100394.06
2019-03-01T19:27:34.971Z,100393.88
2019-03-01T19:30:05.085Z,100393.97
2019-03-01T19:32:54.464Z,100394.80
2019-03-01T19:35:28.294Z,100388.58
2019-03-01T19:37:54.802Z,100391.94
2019-03-01T19:40:24.507Z,100396.30
2019-03-01T19:42:53.767Z,100390.91
2019-03-01T19:45:29.738Z,100389.41
2019-03-01T19:48:02.993Z,100387.47
2019-03-01T19:50:30.806Z,100391.51
2019-03-01T20:28:07.672Z,100316.55
